Time;durP1;ratioP1;P1;durP2;ratioP2;P2;SDS_P1;SDS_P2;PMS_P1;PMS_P2;Temp;Humidity;BMP_temperature;BMP_pressure;BME280_temperature;BME280_humidity;BME280_pressure;Samples;Min_cycle;Max_cycle;Signal;HPM_P1;HPM_P2
2021/12/21 00:01:58;;;;;;;14.13;7.43;;;-1.60;99.90;;;;;;5072615;28;20043;-37
2021/12/21 00:04:24;;;;;;;16.77;7.93;;;-1.70;99.90;;;;;;5070405;28;20432;-37
2021/12/21 00:06:50;;;;;;;13.88;7.20;;;-1.70;99.90;;;;;;5063261;28;20036;-37
2021/12/21 00:09:16;;;;;;;9.82;6.38;;;-1.70;99.90;;;;;;5068720;28;20493;-37
2021/12/21 00:11:42;;;;;;;11.27;7.03;;;-1.70;99.90;;;;;;5070652;28;20047;-37
2021/12/21 00:17:46;;;;;;;17.13;7.90;;;-1.80;99.90;;;;;;5057531;28;20048;-37
2021/12/21 00:22:10;;;;;;;11.77;7.80;;;-1.80;99.90;;;;;;5072776;28;20052;-37
2021/12/21 00:24:45;;;;;;;14.85;8.50;;;-1.80;99.90;;;;;;5052879;28;20044;-37
2021/12/21 00:27:13;;;;;;;16.20;9.18;;;-1.80;99.90;;;;;;5059431;28;20133;-37
2021/12/21 00:29:38;;;;;;;15.02;9.48;;;-1.80;99.90;;;;;;5059539;28;20078;-37
2021/12/21 00:32:05;;;;;;;17.23;9.15;;;-1.80;99.90;;;;;;5070888;28;20059;-37
2021/12/21 00:34:31;;;;;;;18.70;9.68;;;-1.90;99.90;;;;;;5070733;28;20156;-37
2021/12/21 00:37:04;;;;;;;14.80;8.07;;;-1.90;99.90;;;;;;5070048;28;20047;-37
2021/12/21 00:39:30;;;;;;;14.88;8.70;;;-1.90;99.90;;;;;;5058543;28;20383;-37
2021/12/21 00:41:56;;;;;;;21.35;8.70;;;-1.90;99.90;;;;;;5069571;28;20045;-37
2021/12/21 00:48:03;;;;;;;17.67;8.80;;;-1.90;99.90;;;;;;5058650;28;20063;-37
2021/12/21 00:50:30;;;;;;;13.43;7.55;;;-1.90;99.90;;;;;;5064341;28;20041;-37
2021/12/21 00:52:59;;;;;;;19.42;9.27;;;-2.00;99.90;;;;;;5063092;28;20044;-37
2021/12/21 00:55:25;;;;;;;15.68;9.27;;;-2.00;99.90;;;;;;5078128;28;20044;-37
2021/12/21 00:57:51;;;;;;;18.85;8.90;;;-2.00;99.90;;;;;;5076851;28;20130;-37
2021/12/21 01:04:00;;;;;;;16.42;9.00;;;-2.00;99.90;;;;;;5061732;28;20409;-37
2021/12/21 01:07:20;;;;;;;15.23;9.10;;;-2.00;99.90;;;;;;5070220;28;20047;-37
2021/12/21 01:09:38;;;;;;;14.80;8.50;;;-2.00;99.90;;;;;;5063536;28;20045;-37
2021/12/21 01:12:06;;;;;;;12.70;7.50;;;-2.00;99.90;;;;;;5059085;28;20048;-37
2021/12/21 01:20:27;;;;;;;17.02;8.35;;;-2.10;99.90;;;;;;5061224;28;20045;-37
2021/12/21 01:30:46;;;;;;;13.07;8.40;;;-2.20;99.90;;;;;;5065896;28;20056;-37
2021/12/21 01:35:45;;;;;;;16.77;9.50;;;-2.20;99.90;;;;;;5055363;28;20048;-37
2021/12/21 01:43:36;;;;;;;20.80;10.65;;;-2.20;99.90;;;;;;5066916;28;20406;-37
2021/12/21 01:51:37;;;;;;;15.52;9.20;;;-2.30;99.90;;;;;;5068742;28;20047;-37
2021/12/21 01:54:03;;;;;;;19.45;9.93;;;-2.30;99.90;;;;;;5068562;28;20474;-37
2021/12/21 01:56:30;;;;;;;18.23;9.27;;;-2.30;99.90;;;;;;5056402;28;20048;-37
2021/12/21 01:58:57;;;;;;;18.98;9.50;;;-2.30;99.90;;;;;;5056750;28;20467;-37
2021/12/21 02:01:26;;;;;;;17.35;10.30;;;-2.40;99.90;;;;;;5069465;28;20461;-37
2021/12/21 02:03:53;;;;;;;20.95;9.75;;;-2.30;99.90;;;;;;5070189;28;20075;-37
2021/12/21 02:06:21;;;;;;;17.50;8.87;;;-2.30;99.90;;;;;;5070676;28;20100;-37
2021/12/21 02:08:48;;;;;;;16.48;9.27;;;-2.30;99.90;;;;;;5062268;28;20064;-37
2021/12/21 02:11:15;;;;;;;20.88;10.23;;;-2.40;99.90;;;;;;5050839;28;20041;-37
2021/12/21 02:13:47;;;;;;;18.98;9.43;;;-2.40;99.90;;;;;;5066346;28;20056;-37
2021/12/21 02:16:22;;;;;;;20.63;9.65;;;-2.40;99.90;;;;;;5054472;28;20049;-37
2021/12/21 02:24:14;;;;;;;13.15;7.90;;;-2.40;99.90;;;;;;5055074;28;20101;-37
2021/12/21 02:26:52;;;;;;;17.30;9.73;;;-2.40;99.90;;;;;;5049429;28;20120;-37
2021/12/21 02:29:25;;;;;;;20.42;10.35;;;-2.40;99.90;;;;;;5047555;28;20260;-37
2021/12/21 02:31:53;;;;;;;21.55;10.25;;;-2.40;99.90;;;;;;5061226;28;20104;-37
2021/12/21 02:34:20;;;;;;;27.58;11.90;;;-2.40;99.90;;;;;;5069565;28;20097;-37
2021/12/21 02:36:48;;;;;;;21.20;11.32;;;-2.40;99.90;;;;;;5068787;28;20041;-37
2021/12/21 02:39:15;;;;;;;24.10;11.80;;;-2.40;99.90;;;;;;5068673;28;20044;-37
2021/12/21 02:41:42;;;;;;;23.00;11.63;;;-2.40;99.90;;;;;;5052208;28;20049;-37
2021/12/21 02:44:09;;;;;;;18.70;9.70;;;-2.40;99.90;;;;;;5070299;28;20106;-37
2021/12/21 02:46:39;;;;;;;19.13;10.48;;;-2.40;99.90;;;;;;5069774;28;20033;-37
2021/12/21 02:49:07;;;;;;;19.40;10.32;;;-2.40;99.90;;;;;;5076173;28;20037;-37
2021/12/21 02:51:33;;;;;;;21.83;10.48;;;-2.40;99.90;;;;;;5065213;28;20061;-37
2021/12/21 02:53:59;;;;;;;20.05;11.70;;;-2.40;99.90;;;;;;5064543;28;20383;-37
2021/12/21 02:56:25;;;;;;;22.40;11.38;;;-2.40;99.90;;;;;;5081789;28;20049;-37
2021/12/21 02:58:51;;;;;;;21.38;10.88;;;-2.40;99.90;;;;;;5063729;28;20041;-37
2021/12/21 03:01:17;;;;;;;22.15;11.60;;;-2.40;99.90;;;;;;5062832;28;20047;-37
2021/12/21 03:03:43;;;;;;;21.27;11.73;;;-2.50;99.90;;;;;;5068712;28;20509;-37
2021/12/21 03:06:21;;;;;;;21.45;11.02;;;-2.50;99.90;;;;;;5069109;28;20382;-37
2021/12/21 03:08:56;;;;;;;19.30;9.75;;;-2.60;99.90;;;;;;5058244;28;20052;-37
2021/12/21 03:11:36;;;;;;;18.88;9.80;;;-2.60;99.90;;;;;;5059426;28;20052;-37
2021/12/21 03:14:05;;;;;;;17.58;10.48;;;-2.60;99.90;;;;;;5042979;28;20048;-37
2021/12/21 03:16:33;;;;;;;24.00;10.52;;;-2.60;99.90;;;;;;5067133;28;20059;-37
2021/12/21 03:18:59;;;;;;;20.83;10.50;;;-2.70;99.90;;;;;;5068684;28;20125;-37
2021/12/21 03:21:27;;;;;;;23.00;9.82;;;-2.60;99.90;;;;;;5062300;28;20068;-37
2021/12/21 03:23:55;;;;;;;21.75;11.57;;;-2.60;99.90;;;;;;5068613;28;20126;-37
2021/12/21 03:26:22;;;;;;;21.83;10.35;;;-2.70;99.90;;;;;;5051860;28;20040;-37
2021/12/21 03:28:48;;;;;;;;;;;-2.70;99.90;;;;;;5069724;28;20032;-37
2021/12/21 03:31:14;;;;;;;22.30;10.98;;;-2.70;99.90;;;;;;5051998;28;20377;-37
2021/12/21 03:33:40;;;;;;;24.13;11.02;;;-2.70;99.90;;;;;;5067436;28;20044;-37
2021/12/21 03:36:06;;;;;;;21.98;11.30;;;-2.70;99.90;;;;;;5043774;28;20044;-37
2021/12/21 03:38:33;;;;;;;21.70;12.32;;;-2.60;99.90;;;;;;5046567;28;20386;-37
2021/12/21 03:41:08;;;;;;;24.40;11.20;;;-2.60;99.90;;;;;;5072788;28;20477;-37
2021/12/21 03:43:34;;;;;;;22.02;10.23;;;-2.60;99.90;;;;;;5056445;28;20044;-37
2021/12/21 03:46:11;;;;;;;19.45;10.30;;;-2.70;99.90;;;;;;5072119;28;20544;-37
2021/12/21 03:48:41;;;;;;;25.23;11.52;;;-2.70;99.90;;;;;;5072369;28;20051;-37
2021/12/21 03:51:08;;;;;;;21.65;10.60;;;-2.60;99.90;;;;;;5055142;28;20131;-37
2021/12/21 03:53:34;;;;;;;20.52;9.43;;;-2.60;99.90;;;;;;5053267;28;20051;-37
2021/12/21 03:56:19;;;;;;;22.95;9.88;;;-2.70;99.90;;;;;;5051582;28;20048;-37
2021/12/21 03:58:45;;;;;;;23.13;10.20;;;-2.70;99.90;;;;;;5068425;28;20494;-37
2021/12/21 04:01:11;;;;;;;22.98;8.82;;;-2.60;99.90;;;;;;5064986;28;20051;-37
2021/12/21 04:03:55;;;;;;;20.13;8.93;;;-2.60;99.90;;;;;;5071681;28;20052;-37
2021/12/21 04:06:21;;;;;;;18.63;8.75;;;-2.60;99.90;;;;;;5034976;28;20052;-37
2021/12/21 04:08:48;;;;;;;20.75;9.25;;;-2.70;99.90;;;;;;5055154;28;20049;-37
2021/12/21 04:11:15;;;;;;;17.40;8.88;;;-2.50;99.90;;;;;;5072765;28;20473;-37
2021/12/21 04:13:41;;;;;;;18.50;9.52;;;-2.50;99.90;;;;;;5070014;28;20376;-37
2021/12/21 04:16:07;;;;;;;19.90;10.10;;;-2.30;99.90;;;;;;5055326;28;20048;-37
2021/12/21 04:18:39;;;;;;;19.42;10.27;;;-2.60;99.90;;;;;;5060806;28;20052;-37
2021/12/21 04:21:09;;;;;;;21.35;10.10;;;-2.70;99.90;;;;;;5072787;28;20075;-37
2021/12/21 04:23:43;;;;;;;21.00;10.10;;;-2.70;99.90;;;;;;5071563;28;20036;-37
2021/12/21 04:26:11;;;;;;;22.23;10.20;;;-2.60;99.90;;;;;;5071025;28;20507;-37
2021/12/21 04:28:38;;;;;;;22.10;10.45;;;-2.70;99.90;;;;;;5072561;28;20060;-37
2021/12/21 04:31:04;;;;;;;15.02;9.50;;;-2.60;99.90;;;;;;5070686;28;20532;-37
2021/12/21 04:33:31;;;;;;;22.38;10.50;;;-2.40;99.90;;;;;;5053819;28;20506;-37
2021/12/21 04:35:57;;;;;;;21.93;9.57;;;-2.70;99.90;;;;;;5056784;28;20106;-37
2021/12/21 04:38:28;;;;;;;17.65;9.45;;;-2.80;99.90;;;;;;5047811;28;20075;-37
2021/12/21 04:41:05;;;;;;;18.40;9.63;;;-2.80;99.90;;;;;;5068175;28;20138;-37
2021/12/21 04:43:31;;;;;;;17.70;9.25;;;-2.80;99.90;;;;;;5060639;28;20056;-37
2021/12/21 04:45:57;;;;;;;16.75;8.20;;;-2.70;99.90;;;;;;5070198;28;20140;-37
2021/12/21 04:48:22;;;;;;;16.80;8.90;;;-2.80;99.90;;;;;;5072728;28;20043;-37
2021/12/21 04:50:49;;;;;;;22.77;9.73;;;-2.80;99.90;;;;;;5070310;28;20124;-37
2021/12/21 04:53:16;;;;;;;18.17;8.98;;;-2.80;99.90;;;;;;5076068;28;20499;-37
2021/12/21 04:55:42;;;;;;;16.45;9.32;;;-2.80;99.90;;;;;;5072230;28;20044;-37
2021/12/21 04:58:08;;;;;;;16.70;9.63;;;-2.70;99.90;;;;;;5053933;28;20410;-37
2021/12/21 05:00:54;;;;;;;19.97;10.60;;;-2.50;99.90;;;;;;5053605;28;20040;-37
2021/12/21 05:03:20;;;;;;;17.83;9.07;;;-2.80;99.90;;;;;;5062089;28;20167;-37
2021/12/21 05:05:46;;;;;;;19.02;8.55;;;-2.80;99.90;;;;;;5084176;28;20037;-37
2021/12/21 05:08:26;;;;;;;12.02;7.90;;;-2.80;99.90;;;;;;5070515;28;20063;-37
2021/12/21 05:10:57;;;;;;;13.35;8.55;;;-2.80;99.90;;;;;;5069676;28;20119;-37
2021/12/21 05:13:27;;;;;;;15.13;7.85;;;-2.80;99.90;;;;;;5071163;28;20513;-37
2021/12/21 05:15:54;;;;;;;16.40;9.38;;;-2.70;99.90;;;;;;5071627;28;20059;-37
2021/12/21 05:18:21;;;;;;;17.02;9.73;;;-2.80;99.90;;;;;;5054021;28;20071;-37
2021/12/21 05:20:47;;;;;;;14.50;8.90;;;-2.70;99.90;;;;;;5069718;28;20053;-37
2021/12/21 05:23:14;;;;;;;16.00;9.10;;;-2.70;99.90;;;;;;5069526;28;20037;-37
2021/12/21 05:25:40;;;;;;;14.85;8.52;;;-2.70;99.90;;;;;;5070376;28;20044;-37
2021/12/21 05:28:08;;;;;;;16.90;8.98;;;-2.70;99.90;;;;;;5069462;28;20071;-37
2021/12/21 05:30:35;;;;;;;13.38;8.02;;;-2.80;99.90;;;;;;5053037;28;20071;-37
2021/12/21 05:33:22;;;;;;;16.67;8.98;;;-2.70;99.90;;;;;;5066880;28;20048;-37
2021/12/21 05:35:48;;;;;;;17.88;8.40;;;-2.80;99.90;;;;;;5050071;28;20041;-37
2021/12/21 05:38:19;;;;;;;13.65;7.43;;;-2.90;99.90;;;;;;5066733;28;20380;-37
2021/12/21 05:40:46;;;;;;;15.02;7.70;;;-2.70;99.90;;;;;;5066471;28;20044;-37
2021/12/21 05:43:12;;;;;;;15.38;7.70;;;-2.80;99.90;;;;;;5051310;28;20461;-37
2021/12/21 05:45:39;;;;;;;15.40;9.07;;;-3.00;99.90;;;;;;5053526;28;20045;-37
2021/12/21 05:48:06;;;;;;;14.25;7.88;;;-3.00;99.90;;;;;;5069726;28;20065;-37
2021/12/21 05:50:32;;;;;;;13.83;7.80;;;-2.80;99.90;;;;;;5111771;27;20083;-37
2021/12/21 05:52:58;;;;;;;15.13;7.10;;;-2.80;99.90;;;;;;5068669;28;20060;-37
2021/12/21 05:55:24;;;;;;;15.02;8.57;;;-2.70;99.90;;;;;;5068110;28;20032;-37
2021/12/21 05:57:51;;;;;;;15.40;7.60;;;-2.80;99.90;;;;;;5052431;28;20122;-37
2021/12/21 06:00:26;;;;;;;17.67;8.02;;;-2.80;99.90;;;;;;5051669;28;20048;-37
2021/12/21 06:02:52;;;;;;;11.73;7.13;;;-2.80;99.90;;;;;;5070686;28;20462;-37
2021/12/21 06:05:18;;;;;;;16.33;7.97;;;-2.80;99.90;;;;;;5060127;28;20120;-37
2021/12/21 06:07:47;;;;;;;15.02;7.03;;;;;;;;;;5077376;28;20044;-37
2021/12/21 06:10:19;;;;;;;18.30;8.07;;;;;;;;;;5071484;28;20032;-37
2021/12/21 06:13:19;;;;;;;15.23;7.93;;;;;;;;;;5051720;28;20522;-37
2021/12/21 06:26:17;;;;;;;14.77;8.25;;;;;;;;;;5070062;28;20055;-37
2021/12/21 06:28:44;;;;;;;13.80;6.68;;;;;;;;;;5069828;28;20045;-37
2021/12/21 06:31:11;;;;;;;13.63;7.15;;;;;;;;;;5052564;28;20091;-37
2021/12/21 06:33:37;;;;;;;10.55;6.38;;;;;;;;;;5070543;28;20071;-37
2021/12/21 06:36:04;;;;;;;12.27;7.00;;;-2.40;99.90;;;;;;5069309;28;20036;-37
2021/12/21 06:38:30;;;;;;;14.18;6.78;;;-2.80;99.90;;;;;;5070889;28;20101;-37
2021/12/21 06:40:56;;;;;;;12.77;6.70;;;-2.70;99.90;;;;;;5050424;28;20041;-37
2021/12/21 06:43:23;;;;;;;11.80;7.35;;;;;;;;;;5060702;28;20041;-37
2021/12/21 06:51:33;;;;;;;14.15;6.70;;;-3.00;99.90;;;;;;5053417;28;20033;-37
2021/12/21 06:53:59;;;;;;;11.60;6.55;;;-2.90;99.90;;;;;;5059036;28;20162;-37
2021/12/21 06:56:27;;;;;;;12.98;7.55;;;-2.80;99.90;;;;;;5064741;28;20045;-37
2021/12/21 06:59:03;;;;;;;15.00;7.43;;;-3.00;99.90;;;;;;5081096;28;20515;-37
2021/12/21 07:01:33;;;;;;;11.07;6.80;;;-2.80;99.90;;;;;;5056474;28;20110;-37
2021/12/21 07:03:59;;;;;;;12.73;6.82;;;-3.00;99.90;;;;;;5068821;28;20041;-37
2021/12/21 07:06:26;;;;;;;15.32;7.05;;;-3.00;99.90;;;;;;5047717;28;20040;-37
2021/12/21 07:19:45;;;;;;;15.52;7.20;;;-2.80;99.90;;;;;;5072612;28;20146;-37
2021/12/21 07:22:12;;;;;;;14.60;7.82;;;-2.90;99.90;;;;;;5072502;28;20124;-37
2021/12/21 07:24:37;;;;;;;16.42;8.23;;;-3.00;99.90;;;;;;5072266;28;20070;-37
2021/12/21 07:27:04;;;;;;;13.10;7.13;;;-3.00;99.90;;;;;;5072545;28;20041;-37
2021/12/21 07:29:30;;;;;;;11.90;7.07;;;-3.10;99.90;;;;;;5054491;28;20047;-37
2021/12/21 07:31:56;;;;;;;13.25;5.88;;;-3.00;99.90;;;;;;5065532;28;20033;-37
2021/12/21 07:34:22;;;;;;;13.65;7.53;;;;;;;;;;5068279;28;20044;-37
2021/12/21 07:36:49;;;;;;;10.70;6.68;;;;;;;;;;5058279;28;20044;-37
2021/12/21 07:39:17;;;;;;;12.63;6.80;;;;;;;;;;5071543;28;20051;-37
2021/12/21 07:41:44;;;;;;;14.30;7.72;;;;;;;;;;5054449;28;20471;-37
2021/12/21 07:44:10;;;;;;;14.53;7.33;;;;;;;;;;5054520;28;20040;-37
2021/12/21 07:46:38;;;;;;;14.32;7.30;;;;;;;;;;5069926;28;20046;-37
2021/12/21 07:49:04;;;;;;;11.15;7.22;;;;;;;;;;5072761;28;20103;-37
2021/12/21 07:51:30;;;;;;;14.25;6.85;;;;;;;;;;5068337;28;20135;-37
2021/12/21 07:53:57;;;;;;;11.07;7.35;;;;;;;;;;5053428;28;20115;-37
2021/12/21 07:56:23;;;;;;;15.68;7.93;;;;;;;;;;5053293;28;20045;-37
2021/12/21 07:58:50;;;;;;;13.77;7.10;;;;;;;;;;5058210;28;20074;-37
2021/12/21 08:01:16;;;;;;;11.88;7.90;;;;;;;;;;5071459;28;20529;-37
2021/12/21 08:03:42;;;;;;;13.02;7.05;;;;;;;;;;5073386;28;20037;-37
2021/12/21 08:06:12;;;;;;;12.85;7.43;;;;;;;;;;5072106;28;20072;-37
2021/12/21 08:08:41;;;;;;;10.30;6.90;;;;;;;;;;5073042;28;20115;-37
2021/12/21 08:14:04;;;;;;;12.65;7.45;;;;;;;;;;5049910;28;20506;-37
2021/12/21 08:16:31;;;;;;;11.48;6.65;;;;;;;;;;5054895;28;20566;-37
2021/12/21 08:18:57;;;;;;;11.57;7.20;;;;;;;;;;5071672;28;20413;-37
2021/12/21 08:21:25;;;;;;;8.80;6.95;;;;;;;;;;5072539;28;20375;-37
2021/12/21 08:23:54;;;;;;;;;;;;;;;;;;5071688;28;20604;-37
2021/12/21 08:26:20;;;;;;;12.43;6.82;;;;;;;;;;5071424;28;20026;-37
2021/12/21 08:28:47;;;;;;;9.40;6.57;;;;;;;;;;5054690;28;20134;-37
2021/12/21 08:31:13;;;;;;;11.95;7.45;;;;;;;;;;5067073;28;20037;-37
2021/12/21 08:33:41;;;;;;;10.82;6.50;;;-2.50;99.90;;;;;;5066848;28;20068;-37
2021/12/21 08:36:09;;;;;;;12.23;6.95;;;-2.50;99.90;;;;;;5071800;28;20048;-37
2021/12/21 08:38:42;;;;;;;9.95;6.47;;;-2.70;99.90;;;;;;5070637;28;20493;-37
2021/12/21 08:41:09;;;;;;;11.52;7.15;;;-2.60;99.90;;;;;;5069982;28;20032;-37
2021/12/21 08:43:36;;;;;;;14.67;7.20;;;-2.60;99.90;;;;;;5072093;28;20383;-38
2021/12/21 08:46:03;;;;;;;12.70;7.47;;;-2.40;99.90;;;;;;5054449;28;20052;-37
2021/12/21 08:48:31;;;;;;;14.30;7.67;;;-2.50;99.90;;;;;;5072375;28;20554;-37
2021/12/21 08:50:57;;;;;;;13.48;7.47;;;-2.30;99.90;;;;;;5062654;28;20056;-38
2021/12/21 08:53:24;;;;;;;15.50;7.72;;;-2.40;99.90;;;;;;5051883;28;20115;-37
2021/12/21 08:55:51;;;;;;;13.45;7.63;;;-3.00;99.90;;;;;;5050305;28;20085;-37
2021/12/21 08:58:18;;;;;;;15.75;7.57;;;-2.30;99.90;;;;;;5067275;28;20049;-38
2021/12/21 09:00:44;;;;;;;13.02;8.55;;;-2.20;99.90;;;;;;5053282;28;20075;-37
2021/12/21 09:03:11;;;;;;;16.17;8.32;;;-2.20;99.90;;;;;;5069882;28;20051;-37
2021/12/21 09:05:39;;;;;;;16.60;7.55;;;-2.10;99.90;;;;;;5071786;28;20512;-37
2021/12/21 09:08:06;;;;;;;22.45;8.90;;;-2.10;99.90;;;;;;5067807;28;20089;-37
2021/12/21 09:10:33;;;;;;;11.27;8.07;;;-2.00;99.90;;;;;;5059266;28;20128;-38
2021/12/21 09:13:00;;;;;;;17.42;7.85;;;-1.90;99.90;;;;;;5037590;28;20431;-38
2021/12/21 09:15:27;;;;;;;17.33;8.30;;;-1.90;99.90;;;;;;5071291;28;20114;-37
2021/12/21 09:17:54;;;;;;;14.48;7.93;;;-1.60;99.90;;;;;;5053108;28;20045;-38
2021/12/21 09:20:23;;;;;;;14.98;8.52;;;-1.80;99.90;;;;;;5052856;28;20135;-38
2021/12/21 09:22:50;;;;;;;14.95;8.57;;;-1.70;99.90;;;;;;5070811;28;20044;-37
2021/12/21 09:25:17;;;;;;;18.42;9.43;;;-1.60;99.90;;;;;;5067940;28;20028;-38
2021/12/21 09:27:43;;;;;;;17.03;9.57;;;-1.50;99.90;;;;;;5050908;28;20074;-39
2021/12/21 09:30:12;;;;;;;19.10;9.75;;;-1.50;99.90;;;;;;5051116;28;20094;-38
2021/12/21 09:32:40;;;;;;;17.45;9.00;;;-1.40;99.90;;;;;;5069244;28;20036;-38
2021/12/21 09:35:07;;;;;;;18.63;9.98;;;-1.40;99.90;;;;;;5069499;28;20037;-38
2021/12/21 09:37:34;;;;;;;16.77;10.07;;;-1.30;99.90;;;;;;5071195;28;20040;-38
2021/12/21 09:40:00;;;;;;;18.37;9.30;;;-1.20;99.90;;;;;;5069626;28;20044;-38
2021/12/21 09:42:29;;;;;;;17.00;9.48;;;-1.10;99.90;;;;;;5066177;28;20036;-38
2021/12/21 09:44:55;;;;;;;21.90;10.38;;;-1.00;99.90;;;;;;5069896;28;20072;-39
2021/12/21 09:47:23;;;;;;;21.77;11.85;;;-1.00;99.90;;;;;;5072050;28;20043;-38
2021/12/21 09:49:49;;;;;;;20.10;11.90;;;-0.90;99.90;;;;;;5068558;28;20039;-38
2021/12/21 09:52:25;;;;;;;17.80;10.45;;;-0.80;99.90;;;;;;5051026;28;20376;-38
2021/12/21 09:54:51;;;;;;;23.75;13.00;;;-0.70;99.90;;;;;;5051263;28;20049;-38
2021/12/21 09:57:19;;;;;;;20.60;11.95;;;-0.60;99.90;;;;;;5077034;28;20067;-38
2021/12/21 09:59:48;;;;;;;17.38;11.20;;;-0.60;99.90;;;;;;5069016;28;20048;-38
2021/12/21 10:02:17;;;;;;;19.40;11.65;;;-0.50;99.90;;;;;;5063940;28;20105;-38
2021/12/21 10:04:56;;;;;;;17.10;10.65;;;-0.40;99.90;;;;;;5066198;28;20044;-38
2021/12/21 10:07:24;;;;;;;21.38;11.45;;;-0.30;99.90;;;;;;5070188;28;20036;-38
2021/12/21 10:10:00;;;;;;;17.20;10.60;;;-0.20;99.90;;;;;;5068848;28;20028;-38
2021/12/21 10:12:31;;;;;;;18.20;10.63;;;-0.10;99.90;;;;;;5067904;28;20032;-38
2021/12/21 10:15:06;;;;;;;18.45;10.68;;;-0.10;99.90;;;;;;5065295;28;20577;-38
2021/12/21 10:17:33;;;;;;;21.52;10.30;;;0.00;99.90;;;;;;5050573;28;20051;-39
2021/12/21 10:20:01;;;;;;;20.35;11.05;;;0.10;99.90;;;;;;5050981;28;20054;-38
2021/12/21 10:22:33;;;;;;;17.95;11.85;;;;;;;;;;5064559;28;20364;-38
2021/12/21 10:25:00;;;;;;;23.83;12.15;;;0.20;99.90;;;;;;5069701;28;20032;-39
2021/12/21 10:27:26;;;;;;;22.02;11.40;;;0.30;99.90;;;;;;5067501;28;20032;-38
2021/12/21 10:29:59;;;;;;;19.60;12.43;;;0.30;99.90;;;;;;5068659;28;20101;-39
2021/12/21 10:32:32;;;;;;;20.40;12.68;;;0.50;99.90;;;;;;5061808;28;20128;-38
2021/12/21 10:35:02;;;;;;;24.38;14.48;;;0.50;99.90;;;;;;5051666;28;20055;-39
2021/12/21 10:37:31;;;;;;;22.33;13.95;;;0.60;99.90;;;;;;5070152;28;20094;-39
2021/12/21 10:40:06;;;;;;;26.17;14.38;;;0.70;99.90;;;;;;5066572;28;20056;-39
2021/12/21 10:42:43;;;;;;;23.48;13.52;;;;;;;;;;5090584;28;20053;-39
2021/12/21 10:45:09;;;;;;;20.83;13.48;;;0.80;99.90;;;;;;5066051;28;20072;-39
2021/12/21 10:47:36;;;;;;;23.88;12.98;;;0.90;99.90;;;;;;5053459;28;20043;-39
2021/12/21 10:50:05;;;;;;;22.70;12.50;;;1.00;99.90;;;;;;5070524;28;20036;-39
2021/12/21 10:52:32;;;;;;;22.98;12.75;;;1.10;99.90;;;;;;5073987;28;20040;-39
2021/12/21 10:54:59;;;;;;;23.95;9.90;;;1.10;99.90;;;;;;5071706;28;20040;-39
2021/12/21 10:57:33;;;;;;;16.45;11.05;;;1.20;99.90;;;;;;5073634;28;20032;-39
2021/12/21 11:00:05;;;;;;;18.63;10.95;;;1.30;99.90;;;;;;5055387;28;20036;-39
2021/12/21 11:02:34;;;;;;;13.85;8.30;;;1.40;99.90;;;;;;5065773;28;20615;-39
2021/12/21 11:05:02;;;;;;;19.88;8.18;;;1.40;99.90;;;;;;5070283;28;20120;-39
2021/12/21 11:07:45;;;;;;;14.13;7.55;;;1.50;99.90;;;;;;5071578;28;20033;-39
2021/12/21 11:10:27;;;;;;;12.65;7.80;;;1.60;99.90;;;;;;5096470;28;20102;-39
2021/12/21 11:13:02;;;;;;;13.45;6.88;;;1.60;99.90;;;;;;5066355;28;20045;-39
2021/12/21 11:15:33;;;;;;;13.02;7.75;;;1.70;99.90;;;;;;5069044;28;20431;-39
2021/12/21 11:18:05;;;;;;;12.98;6.50;;;1.80;99.90;;;;;;5036542;28;20044;-39
2021/12/21 11:20:32;;;;;;;11.50;6.82;;;1.80;99.90;;;;;;5034061;28;20068;-39
2021/12/21 11:23:05;;;;;;;13.52;7.13;;;1.90;99.90;;;;;;5051359;28;20085;-40
2021/12/21 11:25:33;;;;;;;11.00;6.03;;;2.00;99.90;;;;;;5064383;28;20069;-39
2021/12/21 11:28:02;;;;;;;12.20;5.85;;;2.10;99.90;;;;;;5053442;28;20423;-39
2021/12/21 11:30:29;;;;;;;13.38;6.63;;;2.10;99.90;;;;;;5072050;28;20111;-40
2021/12/21 11:32:57;;;;;;;11.48;6.35;;;2.20;99.90;;;;;;5071763;28;20044;-39
2021/12/21 11:37:56;;;;;;;13.93;6.72;;;2.30;99.90;;;;;;5073463;28;20113;-40
2021/12/21 11:40:26;;;;;;;11.85;5.97;;;2.30;99.90;;;;;;5070271;28;20057;-40
2021/12/21 11:42:52;;;;;;;12.77;6.22;;;2.40;99.90;;;;;;5060045;28;20178;-39
2021/12/21 11:45:38;;;;;;;12.77;5.57;;;2.40;99.90;;;;;;5069766;28;20123;-40
2021/12/21 11:48:10;;;;;;;12.55;6.40;;;2.50;99.90;;;;;;5073602;28;20048;-40
2021/12/21 11:50:39;;;;;;;17.20;5.80;;;2.50;99.90;;;;;;5079706;28;20044;-40
2021/12/21 11:53:09;;;;;;;16.42;6.68;;;2.60;99.90;;;;;;5073160;28;20050;-40
2021/12/21 11:55:39;;;;;;;13.20;5.82;;;2.60;99.90;;;;;;5063216;28;20052;-40
2021/12/21 11:58:32;;;;;;;11.65;5.82;;;2.70;99.90;;;;;;5064899;28;20044;-40
2021/12/21 12:01:12;;;;;;;10.10;5.75;;;2.70;99.90;;;;;;5072277;28;20124;-40
2021/12/21 12:03:44;;;;;;;9.02;4.85;;;2.70;99.90;;;;;;5063575;28;20043;-40
2021/12/21 12:06:15;;;;;;;8.88;5.15;;;2.80;99.90;;;;;;5070920;28;20384;-39
2021/12/21 12:09:07;;;;;;;13.07;5.10;;;2.80;99.90;;;;;;5045658;28;20144;-40
2021/12/21 12:11:37;;;;;;;11.95;5.00;;;2.80;99.90;;;;;;5048317;28;20518;-40
2021/12/21 12:14:18;;;;;;;9.00;5.00;;;2.80;99.90;;;;;;5044712;28;20053;-39
2021/12/21 12:16:49;;;;;;;13.48;4.88;;;2.80;99.90;;;;;;5065174;28;20033;-40
2021/12/21 12:19:20;;;;;;;11.05;4.25;;;2.80;99.90;;;;;;5072233;28;20044;-39
2021/12/21 12:22:07;;;;;;;8.85;4.10;;;2.80;99.90;;;;;;5069302;28;20040;-39
2021/12/21 12:24:54;;;;;;;10.02;4.32;;;2.80;99.90;;;;;;5058408;28;20040;-39
2021/12/21 12:27:26;;;;;;;8.85;3.53;;;2.90;99.90;;;;;;5070901;28;20370;-40
2021/12/21 12:30:11;;;;;;;6.70;3.10;;;2.90;99.90;;;;;;5054408;28;20044;-39
2021/12/21 12:32:43;;;;;;;10.10;3.90;;;2.90;99.90;;;;;;5069741;28;20056;-40
2021/12/21 12:35:20;;;;;;;7.72;3.85;;;2.90;99.90;;;;;;5052298;28;20071;-40
2021/12/21 12:37:50;;;;;;;8.13;3.67;;;2.90;99.90;;;;;;5066968;28;20028;-40
2021/12/21 12:40:40;;;;;;;7.30;3.47;;;2.90;99.90;;;;;;5073178;28;20115;-40
2021/12/21 12:43:27;;;;;;;5.80;3.40;;;2.90;99.90;;;;;;5068956;28;20557;-40
2021/12/21 12:46:03;;;;;;;9.43;3.45;;;2.90;99.90;;;;;;5062079;28;20048;-40
2021/12/21 12:48:32;;;;;;;6.68;3.53;;;3.00;99.90;;;;;;5059563;28;21245;-40
2021/12/21 12:51:02;;;;;;;10.40;3.88;;;2.90;99.90;;;;;;5095563;28;20079;-40
2021/12/21 12:53:54;;;;;;;9.05;3.97;;;2.90;99.90;;;;;;5058099;28;20048;-40
2021/12/21 12:56:20;;;;;;;8.65;3.90;;;3.00;99.90;;;;;;5064381;28;20099;-40
2021/12/21 12:59:00;;;;;;;8.93;4.00;;;3.00;99.90;;;;;;5070170;28;20402;-40
2021/12/21 13:01:30;;;;;;;9.88;3.63;;;3.00;99.90;;;;;;5069989;28;20040;-40
2021/12/21 13:04:00;;;;;;;11.95;4.38;;;3.00;99.90;;;;;;5062882;28;20397;-40
2021/12/21 13:06:51;;;;;;;10.43;6.13;;;3.10;99.90;;;;;;5070638;28;20036;-40
2021/12/21 13:09:20;;;;;;;11.15;7.00;;;3.10;99.90;;;;;;5071550;28;20430;-40
2021/12/21 13:11:46;;;;;;;12.05;6.38;;;3.10;99.90;;;;;;5064820;28;20036;-40
2021/12/21 13:14:15;;;;;;;11.30;6.30;;;3.20;99.90;;;;;;5070671;28;20056;-40
2021/12/21 13:16:42;;;;;;;10.63;5.45;;;3.20;99.90;;;;;;5066658;28;20351;-40
2021/12/21 13:19:11;;;;;;;9.45;5.32;;;3.20;99.90;;;;;;5065556;28;20128;-40
2021/12/21 13:21:47;;;;;;;8.30;5.20;;;3.30;99.90;;;;;;5064237;28;20045;-40
2021/12/21 13:24:19;;;;;;;14.85;5.03;;;3.30;99.90;;;;;;5064437;28;20141;-40
2021/12/21 13:26:51;;;;;;;11.95;5.93;;;3.30;99.90;;;;;;5067036;28;20072;-39
2021/12/21 13:29:19;;;;;;;10.40;5.00;;;3.30;99.90;;;;;;5056268;28;20241;-40
2021/12/21 13:31:50;;;;;;;13.35;5.68;;;3.30;99.90;;;;;;5068984;28;20045;-40
2021/12/21 13:34:18;;;;;;;9.38;4.72;;;3.30;99.90;;;;;;5070471;28;20044;-40
2021/12/21 13:36:52;;;;;;;8.07;4.30;;;3.20;99.90;;;;;;5064437;28;20152;-39
2021/12/21 13:39:23;;;;;;;7.90;3.92;;;3.20;99.90;;;;;;5076232;28;20489;-40
2021/12/21 13:42:16;;;;;;;10.13;4.18;;;3.10;99.90;;;;;;5066682;28;20129;-40
2021/12/21 13:44:55;;;;;;;11.63;3.75;;;3.10;99.90;;;;;;5062520;28;20122;-40
2021/12/21 13:47:27;;;;;;;9.10;3.75;;;3.00;99.90;;;;;;5097219;28;20489;-39
2021/12/21 13:50:05;;;;;;;10.05;4.18;;;2.90;99.90;;;;;;5063485;28;20040;-39
2021/12/21 13:52:37;;;;;;;11.00;3.90;;;2.90;99.90;;;;;;5092607;27;20040;-39
2021/12/21 13:55:06;;;;;;;8.77;3.63;;;2.80;99.90;;;;;;5072356;28;20052;-39
2021/12/21 13:57:33;;;;;;;9.18;5.07;;;2.70;99.90;;;;;;5068036;28;20099;-39
2021/12/21 14:00:06;;;;;;;11.27;4.30;;;2.70;99.90;;;;;;5075183;28;20047;-39
2021/12/21 14:02:36;;;;;;;11.68;5.03;;;2.70;99.90;;;;;;5067366;28;20393;-39
2021/12/21 14:05:06;;;;;;;10.00;5.15;;;2.70;99.90;;;;;;5068112;28;20528;-39
2021/12/21 14:07:37;;;;;;;11.27;5.85;;;2.60;99.90;;;;;;5061558;28;20044;-40
2021/12/21 14:10:09;;;;;;;10.95;5.82;;;2.50;99.90;;;;;;5058871;28;20024;-39
2021/12/21 14:12:38;;;;;;;9.70;5.57;;;2.50;99.90;;;;;;5066866;28;20544;-39
2021/12/21 14:15:05;;;;;;;8.75;5.47;;;2.50;99.90;;;;;;5069459;28;20052;-39
2021/12/21 14:17:31;;;;;;;14.15;5.65;;;2.40;99.90;;;;;;5045452;28;20111;-39
2021/12/21 14:20:00;;;;;;;13.27;6.18;;;2.40;99.90;;;;;;5065086;28;20041;-39
2021/12/21 14:22:26;;;;;;;12.38;6.03;;;2.40;99.90;;;;;;5064044;28;20052;-39